createdAt,value
2022-08-11T00:01:13.455Z,1.13
2022-08-11T00:03:57.410Z,1.20
2022-08-11T00:06:26.242Z,1.40
2022-08-11T00:08:54.118Z,0.95
2022-08-11T00:11:21.964Z,1.50
2022-08-11T00:13:53.638Z,1.05
2022-08-11T00:16:23.863Z,0.93
2022-08-11T00:18:52.909Z,1.30
2022-08-11T00:21:20.976Z,0.73
2022-08-11T00:24:08.313Z,1.10
2022-08-11T00:26:36.379Z,1.40
2022-08-11T00:29:10.487Z,1.20
2022-08-11T00:31:37.377Z,1.40
2022-08-11T00:34:06.703Z,1.25
2022-08-11T00:36:47.425Z,1.35
2022-08-11T00:39:15.102Z,1.38
2022-08-11T00:42:06.875Z,1.00
2022-08-11T00:44:38.199Z,0.95
2022-08-11T00:47:27.408Z,1.13
2022-08-11T00:50:09.099Z,0.90
2022-08-11T00:52:50.914Z,1.73
2022-08-11T00:55:47.253Z,0.85
2022-08-11T00:58:56.098Z,1.40
2022-08-11T01:01:31.422Z,1.00
2022-08-11T01:04:35.245Z,1.23
2022-08-11T01:08:02.991Z,1.08
2022-08-11T01:10:30.118Z,1.00
2022-08-11T01:13:10.556Z,1.50
2022-08-11T01:15:57.402Z,1.20
2022-08-11T01:18:58.531Z,1.08
2022-08-11T01:21:56.437Z,0.82
2022-08-11T01:25:08.222Z,1.77
2022-08-11T01:27:52.655Z,0.70
2022-08-11T01:30:49.343Z,0.90
2022-08-11T01:33:53.778Z,0.95
2022-08-11T01:36:38.898Z,1.55
2022-08-11T01:39:48.832Z,1.13
2022-08-11T01:43:02.109Z,1.02
2022-08-11T01:45:55.585Z,1.38
2022-08-11T01:48:22.360Z,2.13
2022-08-11T01:51:17.275Z,1.00
2022-08-11T01:53:59.824Z,0.93
2022-08-11T01:56:58.160Z,1.17
2022-08-11T01:59:36.631Z,1.23
2022-08-11T02:02:47.470Z,1.35
2022-08-11T02:05:22.568Z,0.82
2022-08-11T02:08:33.047Z,1.27
2022-08-11T02:11:35.129Z,1.10
2022-08-11T02:14:40.215Z,1.30
2022-08-11T02:17:18.994Z,1.20
2022-08-11T02:20:17.162Z,1.35
2022-08-11T02:24:04.468Z,0.93
2022-08-11T02:26:09.408Z,1.42
2022-08-11T02:28:49.870Z,1.20
2022-08-11T02:32:25.202Z,0.93
2022-08-11T02:35:11.319Z,1.80
2022-08-11T02:37:45.192Z,1.15
2022-08-11T02:40:34.787Z,1.33
2022-08-11T02:43:29.737Z,1.15
2022-08-11T02:46:29.237Z,1.00
2022-08-11T02:49:24.062Z,1.33
2022-08-11T02:52:03.953Z,1.30
2022-08-11T02:54:50.669Z,1.27
2022-08-11T02:57:34.284Z,1.27
2022-08-11T03:00:15.299Z,1.23
2022-08-11T03:03:07.848Z,1.15
2022-08-11T03:06:02.612Z,1.52
2022-08-11T03:08:52.587Z,1.30
2022-08-11T03:11:45.069Z,1.50
2022-08-11T03:14:55.437Z,0.95
2022-08-11T03:17:34.251Z,1.27
2022-08-11T03:20:39.275Z,1.23
2022-08-11T03:23:29.742Z,1.38
2022-08-11T03:26:19.531Z,1.85
2022-08-11T03:29:07.505Z,1.27
2022-08-11T03:32:01.943Z,1.55
2022-08-11T03:34:30.376Z,1.33
2022-08-11T03:37:35.718Z,1.05
2022-08-11T03:40:54.796Z,1.10
2022-08-11T03:43:58.200Z,0.90
2022-08-11T03:46:39.619Z,1.48
2022-08-11T03:49:29.979Z,1.00
2022-08-11T03:52:14.265Z,1.88
2022-08-11T03:54:56.405Z,1.27
2022-08-11T03:58:00.357Z,1.35
2022-08-11T04:00:43.358Z,1.33
2022-08-11T04:03:35.468Z,1.40
2022-08-11T04:06:22.803Z,2.38
2022-08-11T04:09:27.542Z,1.17
2022-08-11T04:12:36.057Z,1.73
2022-08-11T04:15:37.647Z,1.30
2022-08-11T04:18:26.742Z,1.42
2022-08-11T04:21:08.827Z,1.63
2022-08-11T04:24:38.270Z,1.55
2022-08-11T04:27:24.569Z,1.10
2022-08-11T04:30:23.306Z,1.35
2022-08-11T04:32:59.995Z,1.50
2022-08-11T04:35:32.386Z,2.15
2022-08-11T04:38:17.201Z,1.23
2022-08-11T04:41:31.526Z,1.20
2022-08-11T04:44:17.199Z,1.40
2022-08-11T04:47:03.908Z,1.08
2022-08-11T04:50:19.954Z,0.90
2022-08-11T04:53:29.275Z,2.33
2022-08-11T04:56:32.855Z,1.20
2022-08-11T04:59:53.538Z,1.98
2022-08-11T05:02:37.735Z,1.30
2022-08-11T05:05:33.562Z,0.88
2022-08-11T05:08:23.893Z,1.58
2022-08-11T05:11:08.515Z,1.75
2022-08-11T05:14:04.277Z,1.83
2022-08-11T05:17:12.624Z,1.60
2022-08-11T05:19:58.282Z,1.45
2022-08-11T05:22:47.634Z,1.33
2022-08-11T05:26:44.927Z,1.73
2022-08-11T05:28:51.381Z,1.08
2022-08-11T05:31:39.856Z,1.33
2022-08-11T05:34:31.837Z,1.13
2022-08-11T05:37:25.703Z,1.25
2022-08-11T05:40:16.105Z,1.55
2022-08-11T05:43:08.434Z,2.15
2022-08-11T05:46:03.073Z,1.20
2022-08-11T05:48:52.272Z,2.08
2022-08-11T05:51:38.032Z,1.35
2022-08-11T05:54:29.289Z,1.10
2022-08-11T05:56:59.294Z,1.27
2022-08-11T05:59:28.316Z,2.25
2022-08-11T06:02:00.870Z,1.75
2022-08-11T06:04:28.335Z,1.80
2022-08-11T06:06:56.807Z,1.35
2022-08-11T06:09:48.705Z,1.65
2022-08-11T06:12:20.736Z,1.00
2022-08-11T06:14:50.556Z,1.83
2022-08-11T06:17:25.597Z,1.15
2022-08-11T06:19:57.195Z,1.05
2022-08-11T06:22:33.873Z,2.05
2022-08-11T06:25:01.614Z,1.40
2022-08-11T06:27:32.514Z,1.15
2022-08-11T06:29:59.432Z,1.17
2022-08-11T06:32:32.200Z,1.00
2022-08-11T06:35:07.750Z,1.88
2022-08-11T06:37:53.588Z,1.60
2022-08-11T06:40:43.455Z,1.30
2022-08-11T06:43:20.082Z,1.25
2022-08-11T06:46:03.217Z,1.02
2022-08-11T06:48:32.855Z,1.10
2022-08-11T06:51:13.078Z,1.50
2022-08-11T06:54:03.152Z,1.38
2022-08-11T06:57:06.378Z,1.20
2022-08-11T06:59:57.165Z,1.20
2022-08-11T07:02:31.342Z,1.75
2022-08-11T07:05:16.366Z,1.20
2022-08-11T07:08:33.574Z,1.30
2022-08-11T07:11:42.414Z,1.30
2022-08-11T07:14:31.928Z,1.52
2022-08-11T07:17:00.792Z,1.23
2022-08-11T07:19:47.904Z,1.20
2022-08-11T07:22:34.230Z,1.05
2022-08-11T07:25:33.275Z,1.23
2022-08-11T07:28:30.816Z,1.98
2022-08-11T07:31:01.731Z,1.15
2022-08-11T07:34:07.747Z,1.30
2022-08-11T07:36:35.121Z,0.82
2022-08-11T07:39:02.480Z,1.05
2022-08-11T07:41:32.896Z,1.25
2022-08-11T07:44:09.091Z,1.33
2022-08-11T07:47:06.092Z,1.10
2022-08-11T07:49:54.506Z,1.50
2022-08-11T07:52:30.763Z,1.45
2022-08-11T07:55:04.194Z,1.08
2022-08-11T07:58:14.145Z,1.00
2022-08-11T08:01:10.085Z,1.05
2022-08-11T08:03:56.474Z,1.10
2022-08-11T08:06:41.653Z,1.30
2022-08-11T08:09:27.813Z,1.00
2022-08-11T08:12:14.158Z,1.00
2022-08-11T08:14:59.375Z,0.90
2022-08-11T08:18:09.287Z,1.00
2022-08-11T08:20:38.198Z,1.08
2022-08-11T08:23:05.672Z,0.90
2022-08-11T08:25:34.216Z,1.27
2022-08-11T08:28:02.653Z,1.17
2022-08-11T08:30:47.821Z,0.75
2022-08-11T08:33:19.940Z,1.05
2022-08-11T08:35:56.079Z,0.80
2022-08-11T08:38:23.221Z,0.88
2022-08-11T08:40:54.753Z,1.00
2022-08-11T08:43:23.011Z,0.98
2022-08-11T08:45:49.564Z,0.90
2022-08-11T08:48:17.075Z,0.80
2022-08-11T08:51:15.519Z,0.57
2022-08-11T08:53:52.172Z,0.75
2022-08-11T08:56:25.430Z,0.80
2022-08-11T08:58:52.303Z,1.13
2022-08-11T09:01:21.294Z,1.00
2022-08-11T09:04:05.305Z,1.02
2022-08-11T09:06:34.823Z,0.82
2022-08-11T09:09:01.749Z,0.57
2022-08-11T09:11:46.849Z,0.85
2022-08-11T09:14:15.227Z,0.70
2022-08-11T09:16:43.762Z,0.80
2022-08-11T09:19:10.961Z,0.63
2022-08-11T09:21:49.585Z,0.55
2022-08-11T09:24:37.214Z,0.90
2022-08-11T09:27:07.609Z,0.90
2022-08-11T09:29:34.611Z,0.80
2022-08-11T09:32:01.476Z,0.60
2022-08-11T09:34:28.382Z,0.75
2022-08-11T09:37:13.548Z,0.60
2022-08-11T09:40:14.613Z,1.15
2022-08-11T09:43:00.834Z,0.80
2022-08-11T09:45:27.496Z,0.73
2022-08-11T09:48:07.318Z,0.90
2022-08-11T09:50:34.769Z,0.65
2022-08-11T09:53:35.942Z,0.77
2022-08-11T09:55:53.383Z,0.90
2022-08-11T09:58:41.574Z,0.77
2022-08-11T10:01:27.128Z,0.80
2022-08-11T10:04:01.515Z,0.80
2022-08-11T10:06:47.857Z,0.57
2022-08-11T10:09:19.907Z,0.80
2022-08-11T10:11:58.031Z,0.65
2022-08-11T10:14:45.062Z,0.90
2022-08-11T10:17:13.452Z,1.17
2022-08-11T10:19:42.336Z,0.63
2022-08-11T10:22:27.884Z,0.75
2022-08-11T10:25:15.181Z,1.10
2022-08-11T10:28:17.613Z,0.68
2022-08-11T10:30:52.095Z,1.00
2022-08-11T10:33:45.701Z,0.80
2022-08-11T10:36:24.655Z,0.60
2022-08-11T10:38:52.286Z,0.75
2022-08-11T10:41:38.520Z,0.57
2022-08-11T10:44:25.114Z,0.77
2022-08-11T10:47:10.711Z,0.68
2022-08-11T10:49:37.592Z,0.70
2022-08-11T10:52:22.886Z,1.00
2022-08-11T10:55:08.508Z,0.70
2022-08-11T10:58:05.079Z,0.70
2022-08-11T11:00:32.298Z,0.65
2022-08-11T11:03:22.086Z,0.60
2022-08-11T11:06:27.344Z,0.80
2022-08-11T11:08:52.906Z,0.57
2022-08-11T11:11:21.012Z,0.43
2022-08-11T11:14:09.601Z,0.60
2022-08-11T11:16:56.172Z,0.60
2022-08-11T11:19:25.157Z,0.70
2022-08-11T11:21:54.830Z,0.55
2022-08-11T11:24:46.016Z,0.70
2022-08-11T11:27:57.219Z,0.52
2022-08-11T11:30:32.237Z,0.45
2022-08-11T11:33:13.614Z,0.38
2022-08-11T11:35:58.910Z,0.43
2022-08-11T11:38:25.594Z,0.75
2022-08-11T11:41:12.788Z,0.60
2022-08-11T11:43:39.326Z,0.60
2022-08-11T11:46:09.481Z,0.40
2022-08-11T11:48:36.830Z,0.68
2022-08-11T11:51:03.600Z,0.50
2022-08-11T11:53:30.341Z,0.50
2022-08-11T11:55:59.166Z,0.45
2022-08-11T11:58:45.910Z,0.73
2022-08-11T12:01:16.271Z,0.32
2022-08-11T12:03:48.482Z,0.70
2022-08-11T12:06:15.311Z,0.50
2022-08-11T12:08:42.415Z,0.73
2022-08-11T12:11:31.431Z,0.30
2022-08-11T12:14:02.492Z,0.45
2022-08-11T12:16:34.149Z,0.68
2022-08-11T12:19:24.025Z,0.80
2022-08-11T12:22:10.437Z,0.55
2022-08-11T12:24:56.003Z,0.30
2022-08-11T12:27:25.274Z,0.30
2022-08-11T12:29:55.913Z,0.40
2022-08-11T12:32:24.837Z,0.98
2022-08-11T12:34:51.447Z,0.70
2022-08-11T12:37:23.591Z,0.52
2022-08-11T12:40:37.295Z,0.40
2022-08-11T12:43:21.150Z,0.30
2022-08-11T12:45:53.154Z,0.22
2022-08-11T12:48:57.512Z,0.40
2022-08-11T12:52:06.815Z,0.60
2022-08-11T12:54:41.970Z,0.43
2022-08-11T12:57:49.636Z,0.40
2022-08-11T13:00:35.964Z,0.30
2022-08-11T13:03:22.359Z,0.60
2022-08-11T13:05:52.488Z,0.65
2022-08-11T13:08:20.270Z,0.40
2022-08-11T13:11:05.802Z,0.40
2022-08-11T13:13:55.226Z,0.60
2022-08-11T13:16:20.687Z,0.35
2022-08-11T13:18:47.584Z,0.50
2022-08-11T13:21:20.762Z,0.30
2022-08-11T13:24:00.792Z,0.35
2022-08-11T13:26:41.538Z,0.30
2022-08-11T13:29:17.213Z,1.05
2022-08-11T13:31:43.983Z,0.40
2022-08-11T13:34:10.876Z,0.47
2022-08-11T13:36:38.680Z,0.38
2022-08-11T13:39:05.371Z,0.52
2022-08-11T13:41:39.135Z,0.55
2022-08-11T13:44:07.321Z,0.43
2022-08-11T13:46:34.193Z,0.40
2022-08-11T13:49:02.162Z,0.52
2022-08-11T13:51:34.439Z,0.50
2022-08-11T13:54:10.180Z,0.52
2022-08-11T13:56:41.609Z,0.95
2022-08-11T13:59:08.615Z,0.35
2022-08-11T14:02:03.529Z,0.47
2022-08-11T14:04:39.469Z,0.60
2022-08-11T14:07:07.814Z,0.40
2022-08-11T14:09:40.886Z,0.50
2022-08-11T14:12:33.576Z,0.68
2022-08-11T14:15:10.790Z,0.50
2022-08-11T14:17:47.954Z,0.30
2022-08-11T14:20:39.105Z,0.68
2022-08-11T14:23:04.523Z,0.40
2022-08-11T14:26:01.141Z,0.50
2022-08-11T14:28:33.849Z,0.40
2022-08-11T14:31:05.135Z,0.70
2022-08-11T14:33:59.859Z,1.15
2022-08-11T14:36:21.020Z,0.60
2022-08-11T14:38:47.946Z,0.43
2022-08-11T14:41:33.153Z,0.25
2022-08-11T14:44:18.015Z,0.57
2022-08-11T14:47:03.370Z,0.77
2022-08-11T14:49:30.320Z,0.43
2022-08-11T14:51:58.551Z,0.47
2022-08-11T14:54:45.324Z,0.82
2022-08-11T14:57:12.429Z,0.45
2022-08-11T14:59:39.862Z,0.50
2022-08-11T15:02:25.209Z,1.25
2022-08-11T15:04:51.779Z,0.55
2022-08-11T15:07:29.634Z,0.63
2022-08-11T15:10:17.809Z,0.45
2022-08-11T15:12:49.459Z,0.95
2022-08-11T15:15:38.836Z,0.70
2022-08-11T15:18:06.985Z,0.55
2022-08-11T15:20:53.485Z,0.63
2022-08-11T15:23:38.843Z,0.63
2022-08-11T15:26:15.972Z,0.68
2022-08-11T15:29:05.130Z,0.63
2022-08-11T15:31:32.153Z,0.40
2022-08-11T15:34:21.387Z,0.77
2022-08-11T15:37:08.585Z,0.43
2022-08-11T15:40:06.456Z,0.60
2022-08-11T15:42:53.711Z,0.55
2022-08-11T15:45:41.986Z,0.40
2022-08-11T15:48:11.525Z,0.75
2022-08-11T15:50:40.539Z,0.50
2022-08-11T15:53:16.246Z,0.50
2022-08-11T15:55:43.605Z,0.40
2022-08-11T15:58:30.699Z,0.65
2022-08-11T16:01:15.818Z,0.47
2022-08-11T16:04:13.330Z,0.57
2022-08-11T16:07:00.119Z,0.50
2022-08-11T16:09:48.058Z,0.80
2022-08-11T16:12:26.169Z,0.57
2022-08-11T16:15:15.057Z,0.40
2022-08-11T16:17:52.920Z,0.60
2022-08-11T16:20:26.305Z,0.60
2022-08-11T16:23:01.607Z,0.85
2022-08-11T16:27:05.818Z,0.88
2022-08-11T16:28:18.824Z,0.73
2022-08-11T16:30:46.480Z,0.52
2022-08-11T16:33:22.684Z,0.75
2022-08-11T16:36:19.575Z,0.63
2022-08-11T16:38:46.396Z,0.65
2022-08-11T16:41:17.028Z,0.55
2022-08-11T16:44:04.679Z,0.50
2022-08-11T16:46:50.066Z,1.00
2022-08-11T16:49:18.499Z,0.70
2022-08-11T16:51:45.426Z,0.40
2022-08-11T16:54:12.231Z,0.75
2022-08-11T16:56:50.645Z,0.70
2022-08-11T16:59:20.578Z,0.50
2022-08-11T17:01:56.495Z,0.50
2022-08-11T17:04:46.863Z,0.57
2022-08-11T17:07:50.105Z,0.90
2022-08-11T17:10:51.777Z,0.80
2022-08-11T17:13:35.629Z,0.60
2022-08-11T17:16:07.013Z,0.50
2022-08-11T17:18:43.163Z,0.90
2022-08-11T17:21:14.225Z,0.60
2022-08-11T17:23:52.580Z,0.80
2022-08-11T17:26:22.329Z,0.40
2022-08-11T17:28:53.148Z,0.52
2022-08-11T17:31:39.298Z,0.70
2022-08-11T17:34:27.943Z,0.60
2022-08-11T17:36:55.165Z,0.68
2022-08-11T17:39:25.359Z,0.47
2022-08-11T17:42:11.162Z,0.60
2022-08-11T17:44:56.901Z,0.80
2022-08-11T17:47:42.664Z,0.80
2022-08-11T17:50:16.880Z,0.43
2022-08-11T17:53:04.696Z,0.60
2022-08-11T17:55:53.385Z,0.85
2022-08-11T17:58:39.351Z,0.45
2022-08-11T18:01:08.824Z,0.57
2022-08-11T18:03:39.743Z,0.40
2022-08-11T18:06:12.745Z,0.47
2022-08-11T18:09:02.357Z,0.35
2022-08-11T18:12:06.881Z,0.60
2022-08-11T18:14:55.694Z,0.47
2022-08-11T18:17:41.230Z,0.55
2022-08-11T18:20:27.323Z,0.52
2022-08-11T18:23:14.094Z,0.40
2022-08-11T18:26:02.839Z,0.38
2022-08-11T18:28:58.222Z,0.45
2022-08-11T18:31:43.972Z,0.95
2022-08-11T18:34:32.742Z,0.57
2022-08-11T18:37:30.580Z,0.47
2022-08-11T18:40:21.010Z,0.40
2022-08-11T18:43:06.793Z,0.47
2022-08-11T18:46:06.118Z,0.65
2022-08-11T18:48:54.122Z,0.50
2022-08-11T18:51:39.918Z,0.50
2022-08-11T18:54:28.032Z,0.70
2022-08-11T18:57:15.291Z,0.50
2022-08-11T19:00:01.555Z,0.70
2022-08-11T19:02:49.180Z,0.68
2022-08-11T19:06:31.726Z,0.50
2022-08-11T19:08:46.430Z,0.50
2022-08-11T19:11:32.250Z,0.82
2022-08-11T19:14:18.351Z,0.70
2022-08-11T19:17:04.625Z,0.55
2022-08-11T19:19:50.433Z,0.50
2022-08-11T19:22:36.556Z,0.30
2022-08-11T19:25:25.591Z,0.40
2022-08-11T19:28:12.281Z,0.57
2022-08-11T19:30:58.450Z,0.22
2022-08-11T19:34:03.044Z,0.40
2022-08-11T19:36:50.213Z,0.90
2022-08-11T19:39:37.597Z,0.47
2022-08-11T19:42:24.690Z,1.00
2022-08-11T19:45:09.748Z,0.90
2022-08-11T19:48:08.233Z,0.40
2022-08-11T19:51:00.523Z,0.50
2022-08-11T19:53:46.796Z,0.63
2022-08-11T19:56:32.947Z,0.45
2022-08-11T19:59:18.150Z,0.65
2022-08-11T20:02:13.866Z,0.70
2022-08-11T20:04:59.724Z,0.90
2022-08-11T20:07:46.898Z,0.50
2022-08-11T20:10:34.471Z,0.50
2022-08-11T20:13:21.931Z,0.40
2022-08-11T20:16:07.598Z,0.60
2022-08-11T20:18:53.230Z,0.70
2022-08-11T20:21:39.290Z,0.57
2022-08-11T20:24:24.722Z,0.35
2022-08-11T20:27:18.671Z,0.20
2022-08-11T20:30:09.544Z,0.50
2022-08-11T20:32:54.785Z,1.02
2022-08-11T20:35:40.159Z,1.30
2022-08-11T20:38:26.858Z,0.60
2022-08-11T20:41:12.548Z,0.93
2022-08-11T20:44:05.693Z,0.50
2022-08-11T20:46:52.553Z,0.40
2022-08-11T20:49:45.049Z,0.90
2022-08-11T20:52:39.521Z,0.47
2022-08-11T20:55:51.382Z,0.60
2022-08-11T20:59:11.244Z,1.05
2022-08-11T21:01:41.220Z,0.70
2022-08-11T21:04:27.399Z,0.47
2022-08-11T21:07:22.830Z,0.40
2022-08-11T21:10:23.458Z,0.70
2022-08-11T21:13:24.083Z,0.57
2022-08-11T21:16:26.091Z,0.70
2022-08-11T21:20:06.893Z,0.50
2022-08-11T21:22:34.538Z,0.93
2022-08-11T21:25:21.658Z,0.75
2022-08-11T21:28:08.964Z,0.60
2022-08-11T21:30:57.565Z,0.65
2022-08-11T21:33:44.968Z,0.60
2022-08-11T21:36:30.053Z,0.38
2022-08-11T21:39:15.586Z,0.40
2022-08-11T21:42:00.696Z,0.75
2022-08-11T21:44:46.325Z,0.60
2022-08-11T21:47:42.978Z,1.10
2022-08-11T21:50:29.763Z,0.93
2022-08-11T21:53:16.588Z,0.80
2022-08-11T21:56:02.402Z,0.77
2022-08-11T21:58:47.787Z,0.60
2022-08-11T22:01:34.563Z,0.40
2022-08-11T22:04:19.842Z,0.50
2022-08-11T22:07:04.931Z,0.30
2022-08-11T22:09:50.154Z,0.50
2022-08-11T22:12:37.065Z,0.50
2022-08-11T22:15:25.745Z,0.68
2022-08-11T22:18:11.192Z,0.52
2022-08-11T22:20:57.154Z,0.63
2022-08-11T22:23:42.986Z,0.60
2022-08-11T22:26:30.874Z,0.73
2022-08-11T22:29:17.097Z,0.60
2022-08-11T22:32:02.575Z,0.93
2022-08-11T22:34:53.052Z,0.63
2022-08-11T22:37:40.342Z,0.43
2022-08-11T22:40:27.410Z,1.15
2022-08-11T22:43:12.338Z,0.70
2022-08-11T22:45:57.523Z,0.52
2022-08-11T22:48:45.188Z,1.00
2022-08-11T22:51:32.313Z,0.50
2022-08-11T22:54:20.905Z,0.52
2022-08-11T22:57:06.831Z,0.70
2022-08-11T22:59:52.109Z,0.30
2022-08-11T23:02:37.085Z,0.63
2022-08-11T23:05:22.527Z,1.02
2022-08-11T23:08:07.889Z,1.00
2022-08-11T23:10:53.003Z,0.70
2022-08-11T23:13:38.912Z,0.85
2022-08-11T23:16:25.398Z,0.40
2022-08-11T23:19:12.015Z,0.47
2022-08-11T23:21:58.292Z,0.73
2022-08-11T23:24:44.409Z,0.85
2022-08-11T23:27:30.849Z,0.40
2022-08-11T23:30:19.065Z,0.70
2022-08-11T23:33:07.935Z,1.02
2022-08-11T23:35:58.025Z,0.65
2022-08-11T23:38:46.900Z,1.15
2022-08-11T23:41:34.694Z,0.60
2022-08-11T23:44:21.450Z,0.73
2022-08-11T23:47:13.859Z,0.77
2022-08-11T23:50:00.552Z,0.85
2022-08-11T23:52:47.104Z,0.73
2022-08-11T23:55:33.057Z,0.68
2022-08-11T23:58:18.294Z,0.90
